Time;durP1;ratioP1;P1;durP2;ratioP2;P2;SDS_P1;SDS_P2;PMS_P1;PMS_P2;Temp;Humidity;BMP_temperature;BMP_pressure;BME280_temperature;BME280_humidity;BME280_pressure;Samples;Min_cycle;Max_cycle;Signal;HPM_P1;HPM_P2
2023/06/27 00:00:18;;;;;;;6.97;6.38;;;;;;;19.35;100.00;93954.84;5068736;28;20131;-72
2023/06/27 00:02:46;;;;;;;6.78;6.28;;;;;;;19.33;100.00;93943.56;5072101;28;20028;-72
2023/06/27 00:05:12;;;;;;;7.07;6.47;;;;;;;19.30;100.00;93939.53;5068022;28;20103;-71
2023/06/27 00:07:38;;;;;;;7.03;6.32;;;;;;;19.30;100.00;93933.38;5073085;28;20052;-72
2023/06/27 00:10:04;;;;;;;7.65;6.85;;;;;;;19.27;100.00;93944.53;5068941;28;20037;-72
2023/06/27 00:12:30;;;;;;;9.38;7.07;;;;;;;19.23;100.00;93927.41;5071922;28;20021;-72
2023/06/27 00:14:56;;;;;;;7.38;6.78;;;;;;;19.22;100.00;93909.78;5071438;28;20025;-72
2023/06/27 00:17:23;;;;;;;6.95;6.32;;;;;;;19.19;100.00;93892.38;5073268;28;20024;-72
2023/06/27 00:19:49;;;;;;;7.15;6.55;;;;;;;19.16;100.00;93885.69;5067131;28;20108;-72
2023/06/27 00:22:14;;;;;;;7.40;6.68;;;;;;;19.19;100.00;93881.72;5071070;28;20044;-72
2023/06/27 00:24:40;;;;;;;12.18;6.93;;;;;;;19.22;100.00;93902.56;5070992;28;20032;-72
2023/06/27 00:27:06;;;;;;;7.45;6.75;;;;;;;19.20;100.00;93899.34;5072528;28;20039;-72
2023/06/27 00:29:34;;;;;;;7.07;6.38;;;;;;;19.18;100.00;93893.44;5073610;28;20103;-72
2023/06/27 00:32:00;;;;;;;7.15;6.60;;;;;;;19.20;100.00;93890.53;5087975;28;20028;-72
2023/06/27 00:34:25;;;;;;;7.35;6.72;;;;;;;19.23;100.00;93906.06;5067868;28;20493;-72
2023/06/27 00:36:50;;;;;;;6.68;6.20;;;;;;;19.28;100.00;93916.81;5079897;28;20112;-72
2023/06/27 00:39:16;;;;;;;7.50;6.80;;;;;;;19.26;100.00;93911.72;5074384;28;20024;-72
2023/06/27 00:41:42;;;;;;;7.53;6.82;;;;;;;19.27;100.00;93904.53;5073370;28;20029;-71
2023/06/27 00:44:08;;;;;;;7.75;6.57;;;;;;;19.26;100.00;93892.22;5069115;28;20025;-72
2023/06/27 00:46:39;;;;;;;7.95;7.22;;;;;;;19.25;100.00;93890.63;5077711;28;20484;-72
2023/06/27 00:49:09;;;;;;;7.95;7.22;;;;;;;19.25;100.00;93898.63;5066841;28;20013;-72
2023/06/27 00:51:35;;;;;;;8.18;7.38;;;;;;;19.29;100.00;93913.91;5066016;28;20041;-72
2023/06/27 00:54:01;;;;;;;7.20;6.50;;;;;;;19.35;100.00;93916.66;5068330;28;20068;-72
2023/06/27 00:56:27;;;;;;;7.53;6.93;;;;;;;19.32;100.00;93916.09;5073610;28;20020;-72
2023/06/27 00:58:57;;;;;;;7.85;7.10;;;;;;;19.31;100.00;93877.13;5071021;28;20051;-72
2023/06/27 01:01:23;;;;;;;8.10;7.32;;;;;;;19.33;100.00;93885.69;5071160;28;20024;-72
2023/06/27 01:03:48;;;;;;;7.60;7.00;;;;;;;19.31;100.00;93898.47;5066020;28;20017;-72
2023/06/27 01:06:54;;;;;;;7.85;7.07;;;;;;;19.33;100.00;93919.56;5073287;28;20034;-72
2023/06/27 01:09:36;;;;;;;11.13;7.28;;;;;;;19.32;100.00;93904.59;5071903;28;20037;-72
2023/06/27 01:12:35;;;;;;;8.00;7.20;;;;;;;19.30;100.00;93886.19;5066572;28;20020;-72
2023/06/27 01:15:02;;;;;;;7.43;6.93;;;;;;;19.35;100.00;93871.31;5075169;28;20025;-72
2023/06/27 01:17:28;;;;;;;7.53;6.93;;;;;;;19.31;100.00;93874.47;5072253;28;20021;-72
2023/06/27 01:19:55;;;;;;;8.25;7.45;;;;;;;19.33;100.00;93866.19;5068053;28;20012;-72
2023/06/27 01:22:32;;;;;;;8.63;7.22;;;;;;;19.35;100.00;93856.13;5068474;28;20017;-72
2023/06/27 01:25:01;;;;;;;9.68;7.43;;;;;;;19.31;100.00;93857.63;5065803;28;20032;-72
2023/06/27 01:27:29;;;;;;;7.57;6.90;;;;;;;19.32;100.00;93854.75;5079241;28;20024;-72
2023/06/27 01:29:55;;;;;;;7.38;6.78;;;;;;;19.29;100.00;93854.41;5071733;28;20024;-72
2023/06/27 01:32:46;;;;;;;7.85;7.15;;;;;;;19.31;100.00;93863.78;5071380;28;20051;-72
2023/06/27 01:35:31;;;;;;;8.13;7.32;;;;;;;19.34;100.00;93859.81;5069378;28;20112;-72
2023/06/27 01:38:05;;;;;;;9.30;7.53;;;;;;;19.31;100.00;93861.13;5067130;28;20193;-72
2023/06/27 01:40:36;;;;;;;7.65;6.95;;;;;;;19.30;100.00;93853.34;5067883;28;20480;-72
2023/06/27 01:43:07;;;;;;;7.75;7.00;;;;;;;19.26;100.00;93842.38;5068359;28;20066;-72
2023/06/27 01:45:34;;;;;;;8.63;7.82;;;;;;;19.17;100.00;93831.28;5067061;28;20032;-72
2023/06/27 01:48:00;;;;;;;7.78;7.10;;;;;;;19.10;100.00;93837.81;5068933;28;20021;-72
2023/06/27 01:50:26;;;;;;;8.02;7.32;;;;;;;19.02;100.00;93839.03;5071467;28;20091;-72
2023/06/27 01:52:51;;;;;;;8.15;7.35;;;;;;;18.92;100.00;93820.16;5065942;28;20029;-72
2023/06/27 01:55:17;;;;;;;8.40;7.70;;;;;;;18.85;100.00;93804.31;5075540;28;20012;-72
2023/06/27 01:57:43;;;;;;;8.18;7.50;;;;;;;18.79;100.00;93808.75;5069623;28;20042;-72
2023/06/27 02:00:10;;;;;;;7.57;6.88;;;;;;;18.68;100.00;93796.25;5073225;28;20028;-72
2023/06/27 02:02:35;;;;;;;7.28;6.63;;;;;;;18.63;100.00;93790.84;5069661;28;20042;-72
2023/06/27 02:05:01;;;;;;;8.25;6.97;;;;;;;18.61;100.00;93805.22;5070463;28;20020;-72
2023/06/27 02:07:26;;;;;;;8.18;7.18;;;;;;;18.59;100.00;93795.88;5070053;28;20024;-72
2023/06/27 02:09:51;;;;;;;8.02;7.20;;;;;;;18.52;100.00;93792.50;5072106;28;20116;-71
2023/06/27 02:12:17;;;;;;;7.78;7.07;;;;;;;18.46;100.00;93770.31;5072391;28;20009;-71
2023/06/27 02:14:42;;;;;;;8.30;7.60;;;;;;;18.40;100.00;93729.44;5067579;28;20054;-72
2023/06/27 02:17:08;;;;;;;7.57;6.82;;;;;;;18.33;100.00;93689.63;5074994;28;20028;-72
2023/06/27 02:19:33;;;;;;;8.77;7.97;;;;;;;18.30;100.00;93665.31;5071816;28;20511;-72
2023/06/27 02:21:59;;;;;;;8.55;7.80;;;;;;;18.29;100.00;93679.69;5071784;28;20028;-72
2023/06/27 02:24:24;;;;;;;7.60;6.90;;;;;;;18.26;100.00;93704.16;5066676;28;20047;-72
2023/06/27 02:26:50;;;;;;;8.20;7.15;;;;;;;18.26;100.00;93717.47;5076513;28;20024;-72
2023/06/27 02:29:15;;;;;;;9.30;7.68;;;;;;;18.29;100.00;93717.81;5071859;28;20025;-72
2023/06/27 02:31:40;;;;;;;8.32;7.63;;;;;;;18.23;100.00;93726.72;5070486;28;20025;-71
2023/06/27 02:34:06;;;;;;;7.53;6.82;;;;;;;18.20;100.00;93726.41;5073106;28;20013;-71
2023/06/27 02:36:32;;;;;;;9.88;8.00;;;;;;;18.16;100.00;93710.91;5065920;28;20046;-72
2023/06/27 02:39:01;;;;;;;9.98;7.20;;;;;;;18.11;100.00;93707.34;5071960;28;20062;-71
2023/06/27 02:41:26;;;;;;;8.45;7.85;;;;;;;18.04;100.00;93710.13;5080158;28;20012;-71
2023/06/27 02:43:52;;;;;;;9.35;7.85;;;;;;;18.00;100.00;93715.09;5073532;28;20416;-72
2023/06/27 02:46:18;;;;;;;11.32;8.27;;;;;;;17.96;100.00;93697.19;5074386;28;20055;-71
2023/06/27 02:48:44;;;;;;;11.70;8.18;;;;;;;17.97;100.00;93683.63;5070618;28;20433;-71
2023/06/27 02:51:09;;;;;;;9.48;8.55;;;;;;;17.89;100.00;93684.00;5071583;28;20028;-72
2023/06/27 02:53:34;;;;;;;8.65;7.88;;;;;;;17.83;100.00;93680.44;5074848;28;20346;-71
2023/06/27 02:56:03;;;;;;;9.18;8.27;;;;;;;17.78;100.00;93671.53;5079768;28;20024;-71
2023/06/27 02:58:29;;;;;;;9.07;8.18;;;;;;;17.75;100.00;93670.16;5075178;28;20032;-72
2023/06/27 03:00:54;;;;;;;9.55;8.02;;;;;;;17.71;100.00;93679.66;5068037;28;20028;-72
2023/06/27 03:03:20;;;;;;;9.05;8.15;;;;;;;17.65;100.00;93705.34;5071833;28;20032;-72
2023/06/27 03:05:45;;;;;;;12.57;8.07;;;;;;;17.66;100.00;93703.50;5075286;28;20078;-72
2023/06/27 03:08:11;;;;;;;9.10;8.25;;;;;;;17.64;100.00;93695.75;5076862;28;20754;-72
2023/06/27 03:10:36;;;;;;;9.38;8.50;;;;;;;17.57;100.00;93690.56;5070771;28;20473;-72
2023/06/27 03:13:02;;;;;;;11.10;7.60;;;;;;;17.47;100.00;93675.19;5076114;28;20112;-72
2023/06/27 03:15:27;;;;;;;8.48;7.78;;;;;;;17.44;100.00;93635.78;5070337;28;20099;-71
2023/06/27 03:17:52;;;;;;;8.27;7.57;;;;;;;17.47;100.00;93581.31;5072371;28;20024;-72
2023/06/27 03:20:18;;;;;;;9.30;7.65;;;;;;;17.49;100.00;93562.44;5071094;28;20024;-72
2023/06/27 03:22:43;;;;;;;9.55;8.75;;;;;;;17.46;100.00;93558.38;5054927;28;20020;-72
2023/06/27 03:25:10;;;;;;;8.90;8.10;;;;;;;17.43;100.00;93546.38;5073526;28;20028;-72
2023/06/27 03:27:36;;;;;;;9.30;8.50;;;;;;;17.46;100.00;93545.91;5074922;28;20032;-71
2023/06/27 03:30:02;;;;;;;8.98;8.10;;;;;;;17.44;100.00;93536.53;5071359;28;20029;-72
2023/06/27 03:32:28;;;;;;;9.43;8.30;;;;;;;17.37;100.00;93547.34;5075836;28;20522;-72
2023/06/27 03:34:53;;;;;;;9.25;8.38;;;;;;;17.42;100.00;93541.28;5076587;28;20024;-72
2023/06/27 03:37:19;;;;;;;9.23;8.32;;;;;;;17.40;100.00;93535.41;5073106;28;20094;-72
2023/06/27 03:39:45;;;;;;;8.63;7.93;;;;;;;17.42;100.00;93518.19;5070280;28;20056;-72
2023/06/27 03:42:11;;;;;;;9.02;8.10;;;;;;;17.37;100.00;93527.91;5069054;28;20043;-72
2023/06/27 03:44:36;;;;;;;9.38;8.55;;;;;;;17.33;100.00;93508.94;5068520;28;20020;-72
2023/06/27 03:47:02;;;;;;;8.70;7.90;;;;;;;17.27;100.00;93494.78;5075192;28;20139;-72
2023/06/27 03:49:28;;;;;;;9.43;7.65;;;;;;;17.23;100.00;93482.19;5081305;28;20042;-72
2023/06/27 03:51:53;;;;;;;9.07;8.13;;;;;;;17.20;100.00;93483.44;5068626;28;20062;-71
2023/06/27 03:54:18;;;;;;;9.10;8.15;;;;;;;17.21;100.00;93502.88;5076708;28;20036;-72
2023/06/27 03:56:44;;;;;;;8.95;8.10;;;;;;;17.18;100.00;93496.19;5082501;28;20487;-72
2023/06/27 03:59:09;;;;;;;8.75;7.90;;;;;;;17.15;100.00;93492.16;5073456;28;20079;-72
2023/06/27 04:01:35;;;;;;;9.10;8.18;;;;;;;17.17;100.00;93460.00;5065025;28;20024;-72
2023/06/27 04:04:00;;;;;;;8.90;7.45;;;;;;;17.20;100.00;93448.09;5074626;28;20493;-72
2023/06/27 04:06:26;;;;;;;10.23;8.00;;;;;;;17.16;100.00;93456.56;5067462;28;20047;-72
2023/06/27 04:08:51;;;;;;;11.10;7.72;;;;;;;17.22;100.00;93451.31;5076280;28;20051;-72
2023/06/27 04:11:17;;;;;;;8.88;8.10;;;;;;;17.26;100.00;93450.63;5073085;28;20032;-72
2023/06/27 04:13:42;;;;;;;8.90;8.20;;;;;;;17.35;100.00;93464.31;5071501;28;20020;-72
2023/06/27 04:16:08;;;;;;;9.00;8.20;;;;;;;17.38;100.00;93482.47;5076110;28;20017;-72
2023/06/27 04:18:33;;;;;;;9.50;8.70;;;;;;;17.40;100.00;93482.22;5072805;28;20066;-72
2023/06/27 04:20:58;;;;;;;8.68;7.88;;;;;;;17.36;100.00;93471.28;5067585;28;20090;-72
2023/06/27 04:23:24;;;;;;;9.13;8.32;;;;;;;17.42;100.00;93454.34;5072276;28;20108;-72
2023/06/27 04:26:19;;;;;;;8.50;7.57;;;;;;;17.51;100.00;93451.28;5072275;28;20021;-72
2023/06/27 04:28:47;;;;;;;8.10;7.32;;;;;;;17.56;100.00;93476.13;5075971;28;20044;-71
2023/06/27 04:31:12;;;;;;;9.82;8.82;;;;;;;17.59;100.00;93496.94;5074928;28;20561;-72
2023/06/27 04:33:39;;;;;;;10.70;7.95;;;;;;;17.64;100.00;93498.88;5081022;28;20012;-72
2023/06/27 04:36:15;;;;;;;9.65;7.68;;;;;;;17.68;100.00;93478.72;5071717;28;20039;-72
2023/06/27 04:38:42;;;;;;;9.20;8.25;;;;;;;17.67;100.00;93487.75;5075803;28;20028;-71
2023/06/27 04:41:09;;;;;;;9.68;7.88;;;;;;;17.72;100.00;93489.69;5074562;28;20406;-72
2023/06/27 04:43:34;;;;;;;8.50;7.70;;;;;;;17.75;100.00;93495.31;5072230;28;20068;-71
2023/06/27 04:46:00;;;;;;;9.02;8.15;;;;;;;17.80;100.00;93507.13;5076119;28;20025;-71
2023/06/27 04:48:29;;;;;;;11.23;8.48;;;;;;;17.81;100.00;93525.50;5067956;28;20016;-72
2023/06/27 04:50:56;;;;;;;8.43;7.72;;;;;;;17.87;100.00;93539.72;5072765;28;20016;-71
2023/06/27 04:53:22;;;;;;;10.00;7.15;;;;;;;17.92;100.00;93557.63;5067483;28;20046;-71
2023/06/27 04:55:48;;;;;;;8.70;7.95;;;;;;;17.99;100.00;93603.53;5081781;28;20031;-72
2023/06/27 04:58:14;;;;;;;9.43;7.72;;;;;;;18.04;100.00;93633.75;5075391;28;20511;-72
2023/06/27 05:00:39;;;;;;;8.68;7.88;;;;;;;18.03;100.00;93640.13;5075919;28;20496;-72
2023/06/27 05:03:05;;;;;;;8.70;7.82;;;;;;;18.01;100.00;93658.16;5078234;28;20024;-71
2023/06/27 05:05:34;;;;;;;8.43;7.72;;;;;;;18.04;100.00;93684.34;5070573;28;20489;-70
2023/06/27 05:08:03;;;;;;;10.13;7.65;;;;;;;18.04;100.00;93689.66;5071170;28;20052;-70
2023/06/27 05:10:30;;;;;;;10.48;7.80;;;;;;;18.14;100.00;93685.56;5072982;28;20089;-70
2023/06/27 05:12:56;;;;;;;8.88;7.97;;;;;;;18.12;100.00;93693.75;5075686;28;20019;-71
2023/06/27 05:15:22;;;;;;;8.95;8.30;;;;;;;18.20;100.00;93695.25;5067777;28;20038;-70
2023/06/27 05:18:15;;;;;;;8.73;7.60;;;;;;;18.28;100.00;93708.19;5072961;28;20111;-71
2023/06/27 05:20:41;;;;;;;10.77;8.18;;;;;;;18.39;100.00;93711.84;5069125;28;20099;-70
2023/06/27 05:23:06;;;;;;;10.35;8.48;;;;;;;18.41;100.00;93732.91;5064973;28;20055;-73
2023/06/27 05:25:33;;;;;;;8.43;7.75;;;;;;;18.47;100.00;93748.75;5071074;28;20048;-70
2023/06/27 05:27:59;;;;;;;7.68;7.07;;;;;;;18.51;100.00;93770.41;5066944;28;20493;-70
2023/06/27 05:30:28;;;;;;;8.35;7.68;;;;;;;18.57;100.00;93769.44;5072910;28;20024;-70
2023/06/27 05:32:57;;;;;;;8.82;7.95;;;;;;;18.64;100.00;93782.63;5066836;28;20079;-70
2023/06/27 05:35:23;;;;;;;9.05;8.15;;;;;;;18.71;100.00;93785.16;5072029;28;20086;-70
2023/06/27 05:37:50;;;;;;;8.73;7.93;;;;;;;18.76;100.00;93819.88;5070471;28;20032;-70
2023/06/27 05:40:15;;;;;;;8.23;7.38;;;;;;;18.79;100.00;93827.41;5074418;28;20020;-70
2023/06/27 05:42:41;;;;;;;9.98;7.65;;;;;;;18.95;100.00;93859.66;5072248;28;20460;-70
2023/06/27 05:45:07;;;;;;;9.63;7.15;;;;;;;19.11;100.00;93882.91;5072045;28;20444;-70
2023/06/27 05:47:32;;;;;;;8.77;8.00;;;;;;;19.18;100.00;93891.59;5071551;28;20028;-70
2023/06/27 05:49:58;;;;;;;8.73;7.82;;;;;;;19.24;100.00;93899.66;5073215;28;20035;-71
2023/06/27 05:52:24;;;;;;;9.35;7.38;;;;;;;19.30;100.00;93912.03;5076097;28;20016;-70
2023/06/27 05:54:50;;;;;;;10.55;7.30;;;;;;;19.36;100.00;93929.78;5071099;28;20108;-69
2023/06/27 05:57:16;;;;;;;8.50;6.95;;;;;;;19.41;100.00;93955.72;5070354;28;20016;-69
2023/06/27 05:59:41;;;;;;;9.07;8.10;;;;;;;19.44;100.00;93961.41;5081660;28;20105;-67
2023/06/27 06:02:07;;;;;;;8.07;7.28;;;;;;;19.53;100.00;93982.34;5071288;28;20028;-68
2023/06/27 06:04:32;;;;;;;8.48;7.07;;;;;;;19.67;100.00;94007.69;5069402;28;20028;-69
2023/06/27 06:07:03;;;;;;;7.72;7.03;;;;;;;19.82;100.00;94039.19;5071594;28;20513;-69
2023/06/27 06:09:28;;;;;;;7.93;7.13;;;;;;;19.97;100.00;94046.66;5073656;28;20024;-68
2023/06/27 06:11:53;;;;;;;7.75;7.00;;;;;;;20.10;100.00;94052.75;5072368;28;20038;-68
2023/06/27 06:14:19;;;;;;;10.30;6.60;;;;;;;20.20;100.00;94049.47;5066098;28;20035;-69
2023/06/27 06:16:45;;;;;;;9.05;6.82;;;;;;;20.24;100.00;94078.13;5052066;28;20431;-68
2023/06/27 06:19:11;;;;;;;7.47;6.68;;;;;;;20.33;100.00;94102.56;5066407;28;20028;-68
2023/06/27 06:21:37;;;;;;;6.63;6.07;;;;;;;20.49;100.00;94116.19;5073770;28;20119;-68
2023/06/27 06:24:03;;;;;;;8.85;5.90;;;;;;;20.64;100.00;94156.53;5075080;28;20016;-68
2023/06/27 06:26:28;;;;;;;7.05;6.45;;;;;;;20.74;100.00;94201.34;5069813;28;20020;-68
2023/06/27 06:28:53;;;;;;;6.97;6.28;;;;;;;20.76;100.00;94236.66;5069203;28;20024;-68
2023/06/27 06:31:21;;;;;;;6.78;6.05;;;;;;;20.76;100.00;94244.69;5071263;28;20046;-71
2023/06/27 06:33:48;;;;;;;8.60;6.40;;;;;;;20.83;100.00;94248.03;5071430;28;20024;-70
2023/06/27 06:36:14;;;;;;;7.32;6.00;;;;;;;20.91;100.00;94275.47;5067797;28;20104;-70
2023/06/27 06:38:39;;;;;;;7.80;6.20;;;;;;;20.99;100.00;94281.19;5071821;28;20066;-72
2023/06/27 06:41:05;;;;;;;8.40;6.03;;;;;;;21.12;100.00;94281.94;5076855;28;20779;-71
2023/06/27 06:43:30;;;;;;;6.53;5.95;;;;;;;21.27;100.00;94286.72;5073334;28;20041;-72
2023/06/27 06:45:56;;;;;;;7.55;6.25;;;;;;;21.51;100.00;94289.22;5068801;28;20502;-71
2023/06/27 06:48:23;;;;;;;8.02;5.80;;;;;;;21.60;100.00;94293.94;5069770;28;20031;-72
2023/06/27 06:50:50;;;;;;;6.15;5.55;;;;;;;21.71;100.00;94300.28;5069799;28;20475;-72
2023/06/27 06:53:15;;;;;;;6.13;5.63;;;;;;;21.74;100.00;94305.13;5069964;28;20507;-72
2023/06/27 06:55:41;;;;;;;8.93;6.05;;;;;;;21.77;100.00;94294.97;5070577;28;20028;-73
2023/06/27 06:58:06;;;;;;;13.80;6.10;;;;;;;21.77;100.00;94305.69;5073306;28;20052;-72
2023/06/27 07:00:32;;;;;;;8.07;6.07;;;;;;;21.94;100.00;94279.69;5069522;28;20095;-71
2023/06/27 07:02:57;;;;;;;7.10;5.75;;;;;;;22.23;100.00;94308.19;5067881;28;20033;-72
2023/06/27 07:05:23;;;;;;;6.68;5.88;;;;;;;22.39;100.00;94330.63;5072787;28;20025;-71
2023/06/27 07:07:48;;;;;;;6.47;5.88;;;;;;;22.57;100.00;94310.78;5067847;28;21033;-72
2023/06/27 07:10:14;;;;;;;6.75;5.93;;;;;;;22.63;100.00;94330.38;5071090;28;20020;-71
2023/06/27 07:12:40;;;;;;;6.65;5.97;;;;;;;22.54;100.00;94338.06;5072531;28;20023;-71
2023/06/27 07:15:06;;;;;;;9.52;5.65;;;;;;;22.53;100.00;94342.63;5070724;28;20026;-72
2023/06/27 07:17:32;;;;;;;8.75;5.35;;;;;;;22.40;100.00;94341.13;5067389;28;20032;-71
2023/06/27 07:19:58;;;;;;;6.40;5.85;;;;;;;22.23;100.00;94359.94;5069156;28;20554;-72
2023/06/27 07:22:24;;;;;;;7.32;5.85;;;;;;;22.15;100.00;94357.66;5070218;28;20052;-71
2023/06/27 07:24:49;;;;;;;6.15;5.53;;;;;;;21.91;100.00;94352.53;5061920;28;20035;-71
2023/06/27 07:27:15;;;;;;;5.80;5.18;;;;;;;21.88;100.00;94342.28;5072739;28;20013;-70
2023/06/27 07:29:40;;;;;;;6.90;6.25;;;;;;;21.98;100.00;94323.69;5067225;28;20021;-72
2023/06/27 07:32:06;;;;;;;6.35;5.70;;;;;;;21.91;100.00;94336.44;5066456;28;20032;-72
2023/06/27 07:34:33;;;;;;;8.50;5.70;;;;;;;21.95;100.00;94332.22;5073720;28;20059;-71
2023/06/27 07:36:58;;;;;;;6.45;5.50;;;;;;;22.00;100.00;94332.31;5066099;28;20043;-71
2023/06/27 07:39:24;;;;;;;5.75;5.25;;;;;;;22.04;100.00;94343.31;5070105;28;20020;-71
2023/06/27 07:41:49;;;;;;;6.30;5.70;;;;;;;22.09;100.00;94331.88;5069388;28;20045;-71
2023/06/27 07:44:15;;;;;;;6.68;6.05;;;;;;;22.22;100.00;94336.06;5074429;28;20047;-71
2023/06/27 07:46:40;;;;;;;5.70;5.15;;;;;;;22.20;100.00;94333.59;5062244;28;20024;-71
2023/06/27 07:49:07;;;;;;;6.82;5.72;;;;;;;22.29;100.00;94336.66;5070775;28;20047;-71
2023/06/27 07:51:32;;;;;;;6.47;5.75;;;;;;;22.31;100.00;94332.69;5071466;28;20024;-71
2023/06/27 07:54:00;;;;;;;6.15;5.55;;;;;;;22.28;100.00;94338.56;5073829;28;20024;-71
2023/06/27 07:56:25;;;;;;;5.57;5.18;;;;;;;22.24;100.00;94312.50;5075016;28;20492;-70
2023/06/27 07:58:51;;;;;;;7.32;5.28;;;;;;;22.24;100.00;94318.66;5076303;28;20063;-71
2023/06/27 08:01:16;;;;;;;5.60;5.10;;;;;;;22.17;100.00;94336.78;5066489;28;20077;-70
2023/06/27 08:03:42;;;;;;;5.40;4.97;;;;;;;22.39;100.00;94342.16;5074996;28;20036;-70
2023/06/27 08:06:07;;;;;;;6.70;6.05;;;;;;;22.41;100.00;94340.03;5076524;28;20035;-70
2023/06/27 08:08:33;;;;;;;6.10;5.43;;;;;;;22.56;100.00;94328.72;5074753;28;20538;-71
2023/06/27 08:10:58;;;;;;;6.15;5.63;;;;;;;22.75;100.00;94314.97;5071555;28;20436;-71
2023/06/27 08:13:24;;;;;;;8.57;5.28;;;;;;;22.86;100.00;94338.16;5074411;28;20017;-71
2023/06/27 08:15:50;;;;;;;6.38;5.50;;;;;;;22.86;100.00;94343.50;5071601;28;20128;-71
2023/06/27 08:18:15;;;;;;;5.18;4.78;;;;;;;22.78;100.00;94365.44;5075809;28;20127;-71
2023/06/27 08:20:41;;;;;;;7.13;5.20;;;;;;;22.65;100.00;94341.66;5077296;28;20370;-71
2023/06/27 08:23:07;;;;;;;6.15;5.47;;;;;;;22.73;100.00;94343.94;5066072;28;20035;-71
2023/06/27 08:25:32;;;;;;;6.50;5.38;;;;;;;22.82;100.00;94318.25;5072162;28;20020;-71
2023/06/27 08:27:58;;;;;;;5.93;5.40;;;;;;;22.81;100.00;94334.63;5070585;28;20025;-71
2023/06/27 08:30:23;;;;;;;6.50;5.72;;;;;;;22.68;100.00;94325.91;5075668;28;20052;-71
2023/06/27 08:32:49;;;;;;;7.00;5.55;;;;;;;22.68;100.00;94328.59;5068176;28;20023;-71
2023/06/27 08:35:14;;;;;;;6.00;5.50;;;;;;;22.65;100.00;94304.13;5076727;28;20027;-71
2023/06/27 08:37:40;;;;;;;10.02;6.38;;;;;;;22.74;100.00;94302.63;5073427;28;20032;-71
2023/06/27 08:40:06;;;;;;;6.00;5.55;;;;;;;22.85;100.00;94301.66;5069724;28;20032;-71
2023/06/27 08:42:32;;;;;;;7.55;5.65;;;;;;;23.00;100.00;94309.06;5070937;28;20044;-71
2023/06/27 08:45:01;;;;;;;6.28;5.68;;;;;;;23.13;100.00;94313.22;5073371;28;20104;-71
2023/06/27 08:47:29;;;;;;;7.40;5.85;;;;;;;23.23;100.00;94320.53;5072929;28;20031;-71
2023/06/27 08:50:07;;;;;;;9.23;5.88;;;;;;;23.50;100.00;94332.31;5076410;28;20028;-71
2023/06/27 08:52:47;;;;;;;10.10;5.88;;;;;;;23.66;100.00;94328.69;5069891;28;20035;-71
2023/06/27 08:55:34;;;;;;;6.72;6.10;;;;;;;23.68;100.00;94323.84;5076456;28;20020;-71
2023/06/27 08:58:08;;;;;;;5.85;5.35;;;;;;;23.77;100.00;94309.97;5074767;28;20107;-71
2023/06/27 09:00:34;;;;;;;5.93;5.37;;;;;;;23.71;100.00;94358.25;5067569;28;20078;-71
2023/06/27 09:03:01;;;;;;;6.00;5.40;;;;;;;23.45;100.00;94341.94;5073036;28;20029;-71
2023/06/27 09:05:28;;;;;;;6.20;5.53;;;;;;;23.39;100.00;94326.06;5065734;28;20024;-71
2023/06/27 09:07:57;;;;;;;5.80;5.28;;;;;;;23.45;100.00;94341.16;5074918;28;20024;-70
2023/06/27 09:10:23;;;;;;;7.13;5.43;;;;;;;23.45;100.00;94333.09;5071164;28;20016;-72
2023/06/27 09:12:52;;;;;;;5.68;5.18;;;;;;;23.31;100.00;94313.91;5067170;28;20025;-70
2023/06/27 09:15:17;;;;;;;6.95;5.45;;;;;;;23.29;100.00;94299.94;5071899;28;20024;-70
2023/06/27 09:17:43;;;;;;;7.60;5.57;;;;;;;23.37;100.00;94294.09;5075551;28;20523;-70
2023/06/27 09:20:09;;;;;;;8.00;5.50;;;;;;;23.56;100.00;94321.34;5081643;28;20030;-71
2023/06/27 09:22:37;;;;;;;5.68;5.20;;;;;;;23.76;100.00;94298.38;5073899;28;20510;-71
2023/06/27 09:25:12;;;;;;;9.95;5.75;;;;;;;24.07;100.00;94297.78;5066826;28;20086;-71
2023/06/27 09:27:38;;;;;;;7.82;5.68;;;;;;;24.14;100.00;94283.03;5067384;28;20029;-71
2023/06/27 09:30:10;;;;;;;7.03;5.28;;;;;;;24.14;100.00;94284.91;5069154;28;20649;-71
2023/06/27 09:32:59;;;;;;;8.45;5.50;;;;;;;24.21;100.00;94282.00;5073879;28;20031;-70
2023/06/27 09:35:26;;;;;;;5.75;5.22;;;;;;;24.45;100.00;94306.56;5067440;28;20542;-71
2023/06/27 09:37:53;;;;;;;8.57;5.53;;;;;;;24.64;100.00;94289.91;5060233;28;20031;-71
2023/06/27 09:40:27;;;;;;;6.70;5.13;;;;;;;24.66;100.00;94287.81;5064452;28;20144;-71
2023/06/27 09:42:56;;;;;;;8.23;5.90;;;;;;;24.35;100.00;94266.16;5075801;28;20098;-71
2023/06/27 09:45:23;;;;;;;11.38;5.95;;;;;;;24.45;100.00;94268.91;5070867;28;20012;-71
2023/06/27 09:47:50;;;;;;;6.55;5.95;;;;;;;24.60;100.00;94273.53;5070258;28;20036;-71
2023/06/27 09:50:15;;;;;;;6.85;6.10;;;;;;;24.61;100.00;94291.28;5075359;28;20028;-71
2023/06/27 09:52:48;;;;;;;8.90;5.15;;;;;;;24.92;100.00;94304.03;5073801;28;20016;-71
2023/06/27 09:55:18;;;;;;;6.78;5.75;;;;;;;25.03;100.00;94319.94;5077373;28;20027;-71
2023/06/27 09:57:44;;;;;;;6.35;5.53;;;;;;;25.17;100.00;94287.91;5078556;28;20039;-71
2023/06/27 10:00:11;;;;;;;6.40;5.55;;;;;;;24.93;100.00;94324.47;5079931;28;20543;-71
2023/06/27 10:02:36;;;;;;;6.55;5.28;;;;;;;24.93;100.00;94297.56;5076376;28;20073;-71
2023/06/27 10:05:03;;;;;;;8.07;5.47;;;;;;;25.04;100.00;94256.09;5076154;28;20033;-71
2023/06/27 10:07:29;;;;;;;6.93;5.22;;;;;;;25.14;100.00;94283.06;5070755;28;20402;-70
2023/06/27 10:09:55;;;;;;;6.47;5.63;;;;;;;25.25;100.00;94239.97;5068123;28;20024;-71
2023/06/27 10:12:21;;;;;;;6.20;5.60;;;;;;;25.23;100.00;94261.78;5073369;28;20023;-71
2023/06/27 10:14:47;;;;;;;6.38;5.88;;;;;;;24.89;100.00;94262.28;5074110;28;20107;-71
2023/06/27 10:17:18;;;;;;;6.28;5.68;;;;;;;24.72;100.00;94243.69;5075281;28;20017;-71
2023/06/27 10:19:45;;;;;;;5.93;5.43;;;;;;;24.68;100.00;94200.34;5067969;28;20492;-70
2023/06/27 10:22:14;;;;;;;7.25;5.70;;;;;;;24.81;100.00;94211.72;5074944;28;20116;-71
2023/06/27 10:24:41;;;;;;;7.55;5.90;;;;;;;25.09;100.00;94196.91;5072889;28;20016;-71
2023/06/27 10:27:12;;;;;;;6.07;5.40;;;;;;;25.50;100.00;94223.00;5076886;28;20032;-71
2023/06/27 10:29:42;;;;;;;6.05;5.43;;;;;;;25.83;100.00;94255.78;5073948;28;20598;-71
2023/06/27 10:32:08;;;;;;;8.05;5.28;;;;;;;25.92;100.00;94276.81;5069412;28;20067;-71
2023/06/27 10:34:41;;;;;;;7.80;6.15;;;;;;;25.83;100.00;94233.44;5074383;28;20036;-71
2023/06/27 10:37:10;;;;;;;7.93;5.40;;;;;;;25.81;100.00;94232.91;5070540;28;20107;-69
2023/06/27 10:39:37;;;;;;;8.32;5.72;;;;;;;26.05;100.00;94246.56;5070978;28;20024;-70
2023/06/27 10:42:11;;;;;;;6.25;5.50;;;;;;;26.02;100.00;94257.91;5060417;28;20057;-70
2023/06/27 10:44:59;;;;;;;7.97;5.03;;;;;;;26.36;100.00;94249.19;5075226;28;20029;-69
2023/06/27 10:47:34;;;;;;;6.07;4.78;;;;;;;26.96;100.00;94244.81;5059223;28;20033;-69
2023/06/27 10:50:24;;;;;;;9.60;5.55;;;;;;;27.40;100.00;94316.84;5072165;28;20459;-69
2023/06/27 10:53:05;;;;;;;5.30;4.80;;;;;;;27.68;100.00;94317.19;5071040;28;20045;-69
2023/06/27 10:55:33;;;;;;;7.40;5.45;;;;;;;27.96;100.00;94287.72;5073306;28;20032;-69
2023/06/27 10:58:10;;;;;;;5.57;5.00;;;;;;;28.38;100.00;94311.63;5078234;28;20040;-68
2023/06/27 11:00:40;;;;;;;6.90;5.70;;;;;;;28.02;100.00;94339.84;5069291;28;20049;-69
2023/06/27 11:03:08;;;;;;;8.25;5.15;;;;;;;27.56;100.00;94314.06;5073081;28;20020;-69
2023/06/27 11:05:44;;;;;;;6.32;4.68;;;;;;;27.36;100.00;94294.19;5075861;28;20108;-69
2023/06/27 11:08:18;;;;;;;5.35;4.95;;;;;;;28.05;100.00;94297.91;5077092;28;20044;-69
2023/06/27 11:11:00;;;;;;;5.90;4.78;;;;;;;28.16;100.00;94277.78;5069785;28;20032;-69
2023/06/27 11:13:44;;;;;;;5.95;5.07;;;;;;;28.65;100.00;94281.25;5066379;28;20028;-69
2023/06/27 11:16:11;;;;;;;7.07;4.85;;;;;;;28.92;100.00;94300.72;5071405;28;20656;-69
2023/06/27 11:18:37;;;;;;;5.43;4.97;;;;;;;28.87;100.00;94317.81;5070782;28;20089;-69
2023/06/27 11:21:04;;;;;;;5.32;4.82;;;;;;;28.93;100.00;94311.22;5071795;28;20052;-70
2023/06/27 11:23:29;;;;;;;5.53;5.03;;;;;;;28.96;100.00;94316.09;5073404;28;20028;-70
2023/06/27 11:25:55;;;;;;;6.75;4.88;;;;;;;29.22;100.00;94309.47;5078610;28;20040;-70